Terminal Aerodrome Forecast
Issued by NWS Cleveland, OH

Home | Current Version | Previous Version | Text Only | Print | Product List | Glossary On
Versions: 1 2 3 4 5 6 7 8 9 10 11 12 13 14 15 16 17 18 19 20 21 22
000
FTUS41 KCLE 030344 AAA
TAFMFD
TAF AMD
KMFD 030344Z 0304/0324 VRB03KT P6SM SCT035
     FM030500 VRB03KT P6SM OVC025
     FM031300 10008KT P6SM BKN025
     FM032000 08006KT P6SM SCT030=

USA.gov is the U.S. government's official web portal to all federal, state and local government web resources and services.